sensor_id;sensor_type;location;lat;lon;timestamp;P1;durP1;ratioP1;P2;durP2;ratioP2
16824;SDS011;8529;48.108;-1.706;2023-05-29T00:00:12;14.77;;;7.82;;
16824;SDS011;8529;48.108;-1.706;2023-05-29T00:02:41;14.38;;;7.70;;
16824;SDS011;8529;48.108;-1.706;2023-05-29T00:05:09;18.42;;;7.82;;
16824;SDS011;8529;48.108;-1.706;2023-05-29T00:07:36;15.10;;;7.53;;
16824;SDS011;8529;48.108;-1.706;2023-05-29T00:10:04;17.08;;;7.93;;
16824;SDS011;8529;48.108;-1.706;2023-05-29T00:12:31;17.83;;;8.75;;
16824;SDS011;8529;48.108;-1.706;2023-05-29T00:14:59;16.08;;;7.38;;
16824;SDS011;8529;48.108;-1.706;2023-05-29T00:17:28;14.68;;;7.55;;
16824;SDS011;8529;48.108;-1.706;2023-05-29T00:19:57;19.20;;;7.18;;
16824;SDS011;8529;48.108;-1.706;2023-05-29T00:22:24;18.17;;;8.10;;
16824;SDS011;8529;48.108;-1.706;2023-05-29T00:24:52;16.52;;;7.85;;
16824;SDS011;8529;48.108;-1.706;2023-05-29T00:27:19;17.50;;;7.47;;
16824;SDS011;8529;48.108;-1.706;2023-05-29T00:29:46;16.42;;;8.05;;
16824;SDS011;8529;48.108;-1.706;2023-05-29T00:32:14;19.63;;;7.95;;
16824;SDS011;8529;48.108;-1.706;2023-05-29T00:34:41;19.40;;;8.35;;
16824;SDS011;8529;48.108;-1.706;2023-05-29T00:37:08;19.20;;;8.48;;
16824;SDS011;8529;48.108;-1.706;2023-05-29T00:39:35;16.10;;;7.90;;
16824;SDS011;8529;48.108;-1.706;2023-05-29T00:42:01;14.45;;;7.82;;
16824;SDS011;8529;48.108;-1.706;2023-05-29T00:44:28;15.05;;;7.90;;
16824;SDS011;8529;48.108;-1.706;2023-05-29T00:46:56;18.05;;;7.63;;
16824;SDS011;8529;48.108;-1.706;2023-05-29T00:49:25;19.52;;;7.40;;
16824;SDS011;8529;48.108;-1.706;2023-05-29T00:51:52;18.20;;;7.28;;
16824;SDS011;8529;48.108;-1.706;2023-05-29T00:54:21;18.65;;;8.43;;
16824;SDS011;8529;48.108;-1.706;2023-05-29T00:56:52;19.42;;;7.75;;
16824;SDS011;8529;48.108;-1.706;2023-05-29T00:59:19;20.05;;;8.32;;
16824;SDS011;8529;48.108;-1.706;2023-05-29T01:01:48;16.08;;;8.05;;
16824;SDS011;8529;48.108;-1.706;2023-05-29T01:04:16;14.70;;;7.32;;
16824;SDS011;8529;48.108;-1.706;2023-05-29T01:06:45;17.95;;;7.72;;
16824;SDS011;8529;48.108;-1.706;2023-05-29T01:09:11;21.00;;;7.05;;
16824;SDS011;8529;48.108;-1.706;2023-05-29T01:11:41;17.67;;;8.48;;
16824;SDS011;8529;48.108;-1.706;2023-05-29T01:14:17;15.50;;;7.30;;
16824;SDS011;8529;48.108;-1.706;2023-05-29T01:16:51;18.58;;;8.55;;
16824;SDS011;8529;48.108;-1.706;2023-05-29T01:19:26;18.98;;;8.35;;
16824;SDS011;8529;48.108;-1.706;2023-05-29T01:22:09;20.75;;;7.07;;
16824;SDS011;8529;48.108;-1.706;2023-05-29T01:24:43;22.23;;;8.85;;
16824;SDS011;8529;48.108;-1.706;2023-05-29T01:27:17;14.55;;;7.55;;
16824;SDS011;8529;48.108;-1.706;2023-05-29T01:29:45;20.55;;;8.23;;
16824;SDS011;8529;48.108;-1.706;2023-05-29T01:32:13;20.42;;;8.13;;
16824;SDS011;8529;48.108;-1.706;2023-05-29T01:34:40;15.48;;;7.65;;
16824;SDS011;8529;48.108;-1.706;2023-05-29T01:37:07;16.75;;;7.72;;
16824;SDS011;8529;48.108;-1.706;2023-05-29T01:39:34;15.70;;;7.55;;
16824;SDS011;8529;48.108;-1.706;2023-05-29T01:42:02;21.00;;;7.90;;
16824;SDS011;8529;48.108;-1.706;2023-05-29T01:44:32;18.27;;;7.88;;
16824;SDS011;8529;48.108;-1.706;2023-05-29T01:46:59;16.27;;;8.20;;
16824;SDS011;8529;48.108;-1.706;2023-05-29T01:49:27;16.70;;;8.32;;
16824;SDS011;8529;48.108;-1.706;2023-05-29T01:51:55;15.48;;;8.07;;
16824;SDS011;8529;48.108;-1.706;2023-05-29T01:54:22;18.58;;;8.38;;
16824;SDS011;8529;48.108;-1.706;2023-05-29T01:56:49;20.90;;;8.40;;
16824;SDS011;8529;48.108;-1.706;2023-05-29T01:59:17;15.32;;;7.95;;
16824;SDS011;8529;48.108;-1.706;2023-05-29T02:01:47;18.15;;;7.68;;
16824;SDS011;8529;48.108;-1.706;2023-05-29T02:04:14;19.88;;;8.00;;
16824;SDS011;8529;48.108;-1.706;2023-05-29T02:06:41;16.42;;;7.90;;
16824;SDS011;8529;48.108;-1.706;2023-05-29T02:09:07;19.42;;;8.10;;
16824;SDS011;8529;48.108;-1.706;2023-05-29T02:11:34;17.55;;;7.60;;
16824;SDS011;8529;48.108;-1.706;2023-05-29T02:14:01;14.77;;;7.60;;
16824;SDS011;8529;48.108;-1.706;2023-05-29T02:16:29;14.43;;;6.95;;
16824;SDS011;8529;48.108;-1.706;2023-05-29T02:19:00;16.00;;;7.80;;
16824;SDS011;8529;48.108;-1.706;2023-05-29T02:21:27;13.90;;;7.28;;
16824;SDS011;8529;48.108;-1.706;2023-05-29T02:23:54;19.00;;;7.85;;
16824;SDS011;8529;48.108;-1.706;2023-05-29T02:26:21;19.73;;;7.90;;
16824;SDS011;8529;48.108;-1.706;2023-05-29T02:28:48;16.48;;;8.75;;
16824;SDS011;8529;48.108;-1.706;2023-05-29T02:31:15;21.63;;;8.23;;
16824;SDS011;8529;48.108;-1.706;2023-05-29T02:33:42;16.70;;;7.22;;
16824;SDS011;8529;48.108;-1.706;2023-05-29T02:36:10;18.38;;;8.60;;
16824;SDS011;8529;48.108;-1.706;2023-05-29T02:38:37;16.73;;;7.68;;
16824;SDS011;8529;48.108;-1.706;2023-05-29T02:41:04;20.52;;;8.02;;
16824;SDS011;8529;48.108;-1.706;2023-05-29T02:43:31;15.68;;;8.02;;
16824;SDS011;8529;48.108;-1.706;2023-05-29T02:45:58;14.57;;;7.38;;
16824;SDS011;8529;48.108;-1.706;2023-05-29T02:48:25;15.65;;;7.95;;
16824;SDS011;8529;48.108;-1.706;2023-05-29T02:50:52;15.35;;;7.57;;
16824;SDS011;8529;48.108;-1.706;2023-05-29T02:53:20;13.18;;;7.53;;
16824;SDS011;8529;48.108;-1.706;2023-05-29T02:55:48;16.27;;;8.15;;
16824;SDS011;8529;48.108;-1.706;2023-05-29T02:58:15;20.02;;;8.30;;
16824;SDS011;8529;48.108;-1.706;2023-05-29T03:00:42;16.50;;;7.40;;
16824;SDS011;8529;48.108;-1.706;2023-05-29T03:03:09;17.70;;;8.23;;
16824;SDS011;8529;48.108;-1.706;2023-05-29T03:05:36;17.67;;;7.82;;
16824;SDS011;8529;48.108;-1.706;2023-05-29T03:08:03;18.20;;;7.78;;
16824;SDS011;8529;48.108;-1.706;2023-05-29T03:10:31;16.58;;;7.50;;
16824;SDS011;8529;48.108;-1.706;2023-05-29T03:12:58;22.20;;;8.45;;
16824;SDS011;8529;48.108;-1.706;2023-05-29T03:15:25;12.45;;;7.30;;
16824;SDS011;8529;48.108;-1.706;2023-05-29T03:17:52;21.15;;;8.75;;
16824;SDS011;8529;48.108;-1.706;2023-05-29T03:20:19;17.13;;;8.40;;
16824;SDS011;8529;48.108;-1.706;2023-05-29T03:22:46;18.33;;;7.70;;
16824;SDS011;8529;48.108;-1.706;2023-05-29T03:25:13;15.18;;;7.78;;
16824;SDS011;8529;48.108;-1.706;2023-05-29T03:27:41;18.08;;;7.57;;
16824;SDS011;8529;48.108;-1.706;2023-05-29T03:30:08;18.65;;;8.68;;
16824;SDS011;8529;48.108;-1.706;2023-05-29T03:32:35;16.45;;;8.10;;
16824;SDS011;8529;48.108;-1.706;2023-05-29T03:35:02;15.63;;;7.53;;
16824;SDS011;8529;48.108;-1.706;2023-05-29T03:37:30;20.42;;;7.93;;
16824;SDS011;8529;48.108;-1.706;2023-05-29T03:39:56;15.60;;;8.02;;
16824;SDS011;8529;48.108;-1.706;2023-05-29T03:42:23;21.30;;;7.90;;
16824;SDS011;8529;48.108;-1.706;2023-05-29T03:44:52;18.15;;;7.32;;
16824;SDS011;8529;48.108;-1.706;2023-05-29T03:47:18;17.63;;;8.00;;
16824;SDS011;8529;48.108;-1.706;2023-05-29T03:49:45;18.85;;;8.20;;
16824;SDS011;8529;48.108;-1.706;2023-05-29T03:52:12;15.45;;;7.30;;
16824;SDS011;8529;48.108;-1.706;2023-05-29T03:54:40;13.95;;;7.55;;
16824;SDS011;8529;48.108;-1.706;2023-05-29T03:57:06;19.45;;;8.25;;
16824;SDS011;8529;48.108;-1.706;2023-05-29T03:59:34;15.85;;;8.00;;
16824;SDS011;8529;48.108;-1.706;2023-05-29T04:02:02;15.43;;;7.72;;
16824;SDS011;8529;48.108;-1.706;2023-05-29T04:04:29;17.02;;;6.70;;
16824;SDS011;8529;48.108;-1.706;2023-05-29T04:06:56;16.30;;;7.47;;
16824;SDS011;8529;48.108;-1.706;2023-05-29T04:09:23;13.77;;;7.82;;
16824;SDS011;8529;48.108;-1.706;2023-05-29T04:11:50;18.65;;;8.15;;
16824;SDS011;8529;48.108;-1.706;2023-05-29T04:14:19;17.88;;;7.80;;
16824;SDS011;8529;48.108;-1.706;2023-05-29T04:16:46;15.05;;;7.55;;
16824;SDS011;8529;48.108;-1.706;2023-05-29T04:19:14;17.55;;;8.07;;
16824;SDS011;8529;48.108;-1.706;2023-05-29T04:21:41;21.08;;;7.85;;
16824;SDS011;8529;48.108;-1.706;2023-05-29T04:24:08;13.38;;;7.10;;
16824;SDS011;8529;48.108;-1.706;2023-05-29T04:26:36;22.08;;;8.65;;
16824;SDS011;8529;48.108;-1.706;2023-05-29T04:29:06;16.13;;;8.35;;
16824;SDS011;8529;48.108;-1.706;2023-05-29T04:31:33;16.75;;;7.45;;
16824;SDS011;8529;48.108;-1.706;2023-05-29T04:34:01;16.42;;;7.75;;
16824;SDS011;8529;48.108;-1.706;2023-05-29T04:36:31;15.32;;;7.50;;
16824;SDS011;8529;48.108;-1.706;2023-05-29T04:38:58;13.85;;;6.40;;
16824;SDS011;8529;48.108;-1.706;2023-05-29T04:41:26;15.27;;;6.90;;
16824;SDS011;8529;48.108;-1.706;2023-05-29T04:43:56;16.88;;;7.93;;
16824;SDS011;8529;48.108;-1.706;2023-05-29T04:46:23;11.93;;;7.00;;
16824;SDS011;8529;48.108;-1.706;2023-05-29T04:48:50;17.65;;;7.13;;
16824;SDS011;8529;48.108;-1.706;2023-05-29T04:51:18;13.10;;;7.10;;
16824;SDS011;8529;48.108;-1.706;2023-05-29T04:53:46;17.65;;;7.40;;
16824;SDS011;8529;48.108;-1.706;2023-05-29T04:56:13;14.63;;;6.63;;
16824;SDS011;8529;48.108;-1.706;2023-05-29T04:58:40;17.42;;;7.88;;
16824;SDS011;8529;48.108;-1.706;2023-05-29T05:01:08;14.85;;;7.43;;
16824;SDS011;8529;48.108;-1.706;2023-05-29T05:03:39;15.23;;;6.90;;
16824;SDS011;8529;48.108;-1.706;2023-05-29T05:06:06;18.10;;;6.97;;
16824;SDS011;8529;48.108;-1.706;2023-05-29T05:08:33;16.83;;;7.25;;
16824;SDS011;8529;48.108;-1.706;2023-05-29T05:11:02;18.45;;;6.97;;
16824;SDS011;8529;48.108;-1.706;2023-05-29T05:13:29;16.40;;;6.97;;
16824;SDS011;8529;48.108;-1.706;2023-05-29T05:15:56;15.38;;;6.78;;
16824;SDS011;8529;48.108;-1.706;2023-05-29T05:18:23;16.30;;;7.32;;
16824;SDS011;8529;48.108;-1.706;2023-05-29T05:20:50;13.18;;;7.00;;
16824;SDS011;8529;48.108;-1.706;2023-05-29T05:23:16;15.85;;;6.22;;
16824;SDS011;8529;48.108;-1.706;2023-05-29T05:25:43;21.38;;;7.53;;
16824;SDS011;8529;48.108;-1.706;2023-05-29T05:28:12;14.90;;;6.68;;
16824;SDS011;8529;48.108;-1.706;2023-05-29T05:30:39;10.00;;;6.15;;
16824;SDS011;8529;48.108;-1.706;2023-05-29T05:33:06;18.63;;;6.88;;
16824;SDS011;8529;48.108;-1.706;2023-05-29T05:35:33;11.95;;;6.38;;
16824;SDS011;8529;48.108;-1.706;2023-05-29T05:38:00;13.82;;;6.93;;
16824;SDS011;8529;48.108;-1.706;2023-05-29T05:40:26;11.70;;;6.30;;
16824;SDS011;8529;48.108;-1.706;2023-05-29T05:42:53;12.27;;;6.15;;
16824;SDS011;8529;48.108;-1.706;2023-05-29T05:45:22;13.48;;;6.25;;
16824;SDS011;8529;48.108;-1.706;2023-05-29T05:47:49;13.90;;;6.50;;
16824;SDS011;8529;48.108;-1.706;2023-05-29T05:50:16;13.18;;;6.75;;
16824;SDS011;8529;48.108;-1.706;2023-05-29T05:52:43;14.63;;;6.63;;
16824;SDS011;8529;48.108;-1.706;2023-05-29T05:55:10;16.77;;;6.25;;
16824;SDS011;8529;48.108;-1.706;2023-05-29T05:57:37;10.60;;;5.78;;
16824;SDS011;8529;48.108;-1.706;2023-05-29T06:00:04;13.07;;;6.47;;
16824;SDS011;8529;48.108;-1.706;2023-05-29T06:02:37;12.07;;;5.53;;
16824;SDS011;8529;48.108;-1.706;2023-05-29T06:05:06;13.80;;;5.60;;
16824;SDS011;8529;48.108;-1.706;2023-05-29T06:07:34;11.60;;;5.93;;
16824;SDS011;8529;48.108;-1.706;2023-05-29T06:10:01;10.60;;;5.57;;
16824;SDS011;8529;48.108;-1.706;2023-05-29T06:12:29;11.82;;;5.57;;
16824;SDS011;8529;48.108;-1.706;2023-05-29T06:14:56;10.60;;;5.75;;
16824;SDS011;8529;48.108;-1.706;2023-05-29T06:17:23;10.88;;;5.25;;
16824;SDS011;8529;48.108;-1.706;2023-05-29T06:19:51;9.48;;;5.00;;
16824;SDS011;8529;48.108;-1.706;2023-05-29T06:22:18;14.13;;;5.43;;
16824;SDS011;8529;48.108;-1.706;2023-05-29T06:24:45;12.07;;;5.05;;
16824;SDS011;8529;48.108;-1.706;2023-05-29T06:27:12;12.82;;;5.75;;
16824;SDS011;8529;48.108;-1.706;2023-05-29T06:29:39;11.27;;;5.28;;
16824;SDS011;8529;48.108;-1.706;2023-05-29T06:32:06;13.60;;;5.55;;
16824;SDS011;8529;48.108;-1.706;2023-05-29T06:34:33;10.65;;;5.20;;
16824;SDS011;8529;48.108;-1.706;2023-05-29T06:37:01;10.40;;;5.55;;
16824;SDS011;8529;48.108;-1.706;2023-05-29T06:39:28;9.82;;;5.43;;
16824;SDS011;8529;48.108;-1.706;2023-05-29T06:41:55;11.80;;;5.38;;
16824;SDS011;8529;48.108;-1.706;2023-05-29T06:44:21;13.00;;;5.75;;
16824;SDS011;8529;48.108;-1.706;2023-05-29T06:46:48;9.38;;;5.15;;
16824;SDS011;8529;48.108;-1.706;2023-05-29T06:49:15;8.95;;;4.90;;
16824;SDS011;8529;48.108;-1.706;2023-05-29T06:51:43;10.40;;;4.85;;
16824;SDS011;8529;48.108;-1.706;2023-05-29T06:54:12;12.88;;;5.00;;
16824;SDS011;8529;48.108;-1.706;2023-05-29T06:56:39;9.43;;;5.00;;
16824;SDS011;8529;48.108;-1.706;2023-05-29T06:59:06;11.10;;;5.60;;
16824;SDS011;8529;48.108;-1.706;2023-05-29T07:01:33;11.07;;;5.47;;
16824;SDS011;8529;48.108;-1.706;2023-05-29T07:04:00;8.98;;;5.00;;
16824;SDS011;8529;48.108;-1.706;2023-05-29T07:06:27;9.15;;;4.95;;
16824;SDS011;8529;48.108;-1.706;2023-05-29T07:08:54;9.75;;;5.20;;
16824;SDS011;8529;48.108;-1.706;2023-05-29T07:11:22;10.50;;;4.72;;
16824;SDS011;8529;48.108;-1.706;2023-05-29T07:13:50;7.05;;;4.40;;
16824;SDS011;8529;48.108;-1.706;2023-05-29T07:16:17;11.23;;;4.45;;
16824;SDS011;8529;48.108;-1.706;2023-05-29T07:18:44;10.52;;;4.95;;
16824;SDS011;8529;48.108;-1.706;2023-05-29T07:21:11;16.90;;;5.55;;
16824;SDS011;8529;48.108;-1.706;2023-05-29T07:23:39;9.85;;;5.03;;
16824;SDS011;8529;48.108;-1.706;2023-05-29T07:26:05;8.93;;;4.53;;
16824;SDS011;8529;48.108;-1.706;2023-05-29T07:28:34;10.32;;;4.63;;
16824;SDS011;8529;48.108;-1.706;2023-05-29T07:31:01;9.82;;;4.93;;
16824;SDS011;8529;48.108;-1.706;2023-05-29T07:33:28;13.60;;;4.70;;
16824;SDS011;8529;48.108;-1.706;2023-05-29T07:35:54;8.65;;;4.75;;
16824;SDS011;8529;48.108;-1.706;2023-05-29T07:38:21;7.20;;;4.43;;
16824;SDS011;8529;48.108;-1.706;2023-05-29T07:40:48;12.23;;;5.53;;
16824;SDS011;8529;48.108;-1.706;2023-05-29T07:43:15;9.88;;;4.72;;
16824;SDS011;8529;48.108;-1.706;2023-05-29T07:45:43;11.35;;;5.20;;
16824;SDS011;8529;48.108;-1.706;2023-05-29T07:48:10;10.32;;;4.75;;
16824;SDS011;8529;48.108;-1.706;2023-05-29T07:50:37;10.52;;;5.13;;
16824;SDS011;8529;48.108;-1.706;2023-05-29T07:53:04;11.88;;;5.78;;
16824;SDS011;8529;48.108;-1.706;2023-05-29T07:55:31;8.88;;;4.88;;
16824;SDS011;8529;48.108;-1.706;2023-05-29T07:58:00;13.57;;;5.07;;
16824;SDS011;8529;48.108;-1.706;2023-05-29T08:00:27;9.25;;;4.82;;
16824;SDS011;8529;48.108;-1.706;2023-05-29T08:02:55;9.52;;;5.47;;
16824;SDS011;8529;48.108;-1.706;2023-05-29T08:05:23;10.70;;;5.40;;
16824;SDS011;8529;48.108;-1.706;2023-05-29T08:07:50;13.48;;;5.30;;
16824;SDS011;8529;48.108;-1.706;2023-05-29T08:10:17;12.23;;;5.40;;
16824;SDS011;8529;48.108;-1.706;2023-05-29T08:12:44;12.77;;;5.97;;
16824;SDS011;8529;48.108;-1.706;2023-05-29T08:15:11;10.27;;;4.97;;
16824;SDS011;8529;48.108;-1.706;2023-05-29T08:17:38;9.50;;;5.13;;
16824;SDS011;8529;48.108;-1.706;2023-05-29T08:20:06;8.20;;;5.18;;
16824;SDS011;8529;48.108;-1.706;2023-05-29T08:22:35;11.98;;;5.68;;
16824;SDS011;8529;48.108;-1.706;2023-05-29T08:25:02;9.20;;;5.32;;
16824;SDS011;8529;48.108;-1.706;2023-05-29T08:27:30;9.32;;;5.07;;
16824;SDS011;8529;48.108;-1.706;2023-05-29T08:29:57;10.45;;;4.88;;
16824;SDS011;8529;48.108;-1.706;2023-05-29T08:32:24;9.45;;;5.28;;
16824;SDS011;8529;48.108;-1.706;2023-05-29T08:34:51;12.30;;;5.68;;
16824;SDS011;8529;48.108;-1.706;2023-05-29T08:37:20;12.85;;;6.22;;
16824;SDS011;8529;48.108;-1.706;2023-05-29T08:39:47;16.00;;;5.78;;
16824;SDS011;8529;48.108;-1.706;2023-05-29T08:42:20;11.23;;;5.25;;
16824;SDS011;8529;48.108;-1.706;2023-05-29T08:44:50;10.30;;;5.57;;
16824;SDS011;8529;48.108;-1.706;2023-05-29T08:47:22;12.32;;;5.90;;
16824;SDS011;8529;48.108;-1.706;2023-05-29T08:49:53;12.77;;;6.53;;
16824;SDS011;8529;48.108;-1.706;2023-05-29T08:52:22;10.10;;;5.63;;
16824;SDS011;8529;48.108;-1.706;2023-05-29T08:54:50;12.00;;;6.10;;
16824;SDS011;8529;48.108;-1.706;2023-05-29T08:57:18;11.88;;;5.50;;
16824;SDS011;8529;48.108;-1.706;2023-05-29T08:59:46;14.00;;;6.15;;
16824;SDS011;8529;48.108;-1.706;2023-05-29T09:02:17;10.35;;;5.55;;
16824;SDS011;8529;48.108;-1.706;2023-05-29T09:04:44;13.18;;;6.82;;
16824;SDS011;8529;48.108;-1.706;2023-05-29T09:07:13;11.48;;;6.63;;
16824;SDS011;8529;48.108;-1.706;2023-05-29T09:09:42;12.75;;;6.30;;
16824;SDS011;8529;48.108;-1.706;2023-05-29T09:12:09;14.77;;;6.03;;
16824;SDS011;8529;48.108;-1.706;2023-05-29T09:14:37;16.38;;;6.57;;
16824;SDS011;8529;48.108;-1.706;2023-05-29T09:17:05;12.02;;;6.57;;
16824;SDS011;8529;48.108;-1.706;2023-05-29T09:19:33;11.57;;;6.80;;
16824;SDS011;8529;48.108;-1.706;2023-05-29T09:22:01;12.73;;;6.45;;
16824;SDS011;8529;48.108;-1.706;2023-05-29T09:24:30;11.27;;;6.28;;
16824;SDS011;8529;48.108;-1.706;2023-05-29T09:26:59;10.77;;;7.15;;
16824;SDS011;8529;48.108;-1.706;2023-05-29T09:29:27;15.45;;;7.40;;
16824;SDS011;8529;48.108;-1.706;2023-05-29T09:31:57;9.48;;;5.57;;
16824;SDS011;8529;48.108;-1.706;2023-05-29T09:34:24;17.15;;;7.18;;
16824;SDS011;8529;48.108;-1.706;2023-05-29T09:36:52;10.95;;;7.63;;
16824;SDS011;8529;48.108;-1.706;2023-05-29T09:39:21;15.60;;;7.50;;
16824;SDS011;8529;48.108;-1.706;2023-05-29T09:41:48;12.10;;;6.70;;
16824;SDS011;8529;48.108;-1.706;2023-05-29T09:44:16;16.52;;;7.82;;
16824;SDS011;8529;48.108;-1.706;2023-05-29T09:46:44;12.48;;;6.82;;
16824;SDS011;8529;48.108;-1.706;2023-05-29T09:49:14;10.98;;;6.18;;
16824;SDS011;8529;48.108;-1.706;2023-05-29T09:51:42;16.35;;;6.95;;
16824;SDS011;8529;48.108;-1.706;2023-05-29T09:54:13;9.50;;;6.50;;
16824;SDS011;8529;48.108;-1.706;2023-05-29T09:56:40;10.48;;;6.45;;
16824;SDS011;8529;48.108;-1.706;2023-05-29T09:59:09;10.77;;;6.70;;
16824;SDS011;8529;48.108;-1.706;2023-05-29T10:01:39;11.07;;;6.13;;
16824;SDS011;8529;48.108;-1.706;2023-05-29T10:04:09;13.80;;;6.85;;
16824;SDS011;8529;48.108;-1.706;2023-05-29T10:06:36;14.55;;;7.43;;
16824;SDS011;8529;48.108;-1.706;2023-05-29T10:09:05;11.18;;;7.22;;
16824;SDS011;8529;48.108;-1.706;2023-05-29T10:11:35;12.88;;;6.65;;
16824;SDS011;8529;48.108;-1.706;2023-05-29T10:14:02;17.35;;;7.53;;
16824;SDS011;8529;48.108;-1.706;2023-05-29T10:16:32;11.85;;;6.22;;
16824;SDS011;8529;48.108;-1.706;2023-05-29T10:19:05;12.48;;;6.72;;
16824;SDS011;8529;48.108;-1.706;2023-05-29T10:21:37;11.73;;;6.80;;
16824;SDS011;8529;48.108;-1.706;2023-05-29T10:24:07;13.77;;;7.60;;
16824;SDS011;8529;48.108;-1.706;2023-05-29T10:26:36;15.07;;;6.07;;
16824;SDS011;8529;48.108;-1.706;2023-05-29T10:29:05;10.98;;;6.38;;
16824;SDS011;8529;48.108;-1.706;2023-05-29T10:31:39;11.18;;;5.78;;
16824;SDS011;8529;48.108;-1.706;2023-05-29T10:34:18;13.40;;;7.10;;
16824;SDS011;8529;48.108;-1.706;2023-05-29T10:36:53;10.88;;;6.38;;
16824;SDS011;8529;48.108;-1.706;2023-05-29T10:39:27;12.38;;;7.07;;
16824;SDS011;8529;48.108;-1.706;2023-05-29T10:41:54;10.50;;;7.35;;
16824;SDS011;8529;48.108;-1.706;2023-05-29T10:44:38;12.88;;;7.70;;
16824;SDS011;8529;48.108;-1.706;2023-05-29T10:47:08;13.02;;;8.05;;
16824;SDS011;8529;48.108;-1.706;2023-05-29T10:49:38;12.73;;;7.88;;
16824;SDS011;8529;48.108;-1.706;2023-05-29T10:52:06;11.90;;;7.47;;
16824;SDS011;8529;48.108;-1.706;2023-05-29T10:54:40;10.15;;;6.70;;
16824;SDS011;8529;48.108;-1.706;2023-05-29T10:57:17;12.05;;;7.22;;
16824;SDS011;8529;48.108;-1.706;2023-05-29T10:59:44;9.55;;;6.70;;
16824;SDS011;8529;48.108;-1.706;2023-05-29T11:02:11;12.88;;;7.35;;
16824;SDS011;8529;48.108;-1.706;2023-05-29T11:04:45;9.98;;;6.43;;
16824;SDS011;8529;48.108;-1.706;2023-05-29T11:07:34;13.27;;;5.88;;
16824;SDS011;8529;48.108;-1.706;2023-05-29T11:10:16;13.80;;;6.07;;
16824;SDS011;8529;48.108;-1.706;2023-05-29T11:12:55;10.32;;;6.10;;
16824;SDS011;8529;48.108;-1.706;2023-05-29T11:15:23;9.30;;;5.70;;
16824;SDS011;8529;48.108;-1.706;2023-05-29T11:17:50;14.98;;;6.65;;
16824;SDS011;8529;48.108;-1.706;2023-05-29T11:20:27;12.60;;;6.32;;
16824;SDS011;8529;48.108;-1.706;2023-05-29T11:23:02;9.85;;;6.43;;
16824;SDS011;8529;48.108;-1.706;2023-05-29T11:25:33;13.20;;;6.53;;
16824;SDS011;8529;48.108;-1.706;2023-05-29T11:28:02;9.30;;;7.03;;
16824;SDS011;8529;48.108;-1.706;2023-05-29T11:30:40;8.45;;;6.40;;
16824;SDS011;8529;48.108;-1.706;2023-05-29T11:33:08;14.60;;;7.80;;
16824;SDS011;8529;48.108;-1.706;2023-05-29T11:35:39;11.82;;;7.53;;
16824;SDS011;8529;48.108;-1.706;2023-05-29T11:38:06;11.73;;;7.10;;
16824;SDS011;8529;48.108;-1.706;2023-05-29T11:40:35;19.48;;;7.85;;
16824;SDS011;8529;48.108;-1.706;2023-05-29T11:43:03;13.00;;;7.55;;
16824;SDS011;8529;48.108;-1.706;2023-05-29T11:45:32;13.40;;;8.35;;
16824;SDS011;8529;48.108;-1.706;2023-05-29T11:48:00;11.68;;;7.55;;
16824;SDS011;8529;48.108;-1.706;2023-05-29T11:50:28;17.25;;;9.30;;
16824;SDS011;8529;48.108;-1.706;2023-05-29T11:52:58;11.43;;;8.07;;
16824;SDS011;8529;48.108;-1.706;2023-05-29T11:55:25;13.07;;;8.60;;
16824;SDS011;8529;48.108;-1.706;2023-05-29T11:57:56;14.40;;;7.43;;
16824;SDS011;8529;48.108;-1.706;2023-05-29T12:00:24;11.48;;;7.15;;
16824;SDS011;8529;48.108;-1.706;2023-05-29T12:02:51;13.38;;;6.97;;
16824;SDS011;8529;48.108;-1.706;2023-05-29T12:05:18;13.00;;;8.48;;
16824;SDS011;8529;48.108;-1.706;2023-05-29T12:07:49;10.57;;;7.35;;
16824;SDS011;8529;48.108;-1.706;2023-05-29T12:10:18;12.88;;;7.28;;
16824;SDS011;8529;48.108;-1.706;2023-05-29T12:12:50;11.88;;;7.72;;
16824;SDS011;8529;48.108;-1.706;2023-05-29T12:15:18;13.73;;;7.57;;
16824;SDS011;8529;48.108;-1.706;2023-05-29T12:17:47;14.60;;;7.18;;
16824;SDS011;8529;48.108;-1.706;2023-05-29T12:20:15;16.15;;;7.65;;
16824;SDS011;8529;48.108;-1.706;2023-05-29T12:22:43;17.63;;;7.30;;
16824;SDS011;8529;48.108;-1.706;2023-05-29T12:25:11;10.13;;;6.70;;
16824;SDS011;8529;48.108;-1.706;2023-05-29T12:27:41;11.32;;;6.15;;
16824;SDS011;8529;48.108;-1.706;2023-05-29T12:30:12;9.57;;;6.10;;
16824;SDS011;8529;48.108;-1.706;2023-05-29T12:32:41;8.90;;;5.75;;
16824;SDS011;8529;48.108;-1.706;2023-05-29T12:35:15;8.50;;;6.00;;
16824;SDS011;8529;48.108;-1.706;2023-05-29T12:37:44;13.30;;;6.30;;
16824;SDS011;8529;48.108;-1.706;2023-05-29T12:40:15;8.68;;;5.10;;
16824;SDS011;8529;48.108;-1.706;2023-05-29T12:42:45;11.60;;;5.95;;
16824;SDS011;8529;48.108;-1.706;2023-05-29T12:45:12;7.78;;;5.25;;
16824;SDS011;8529;48.108;-1.706;2023-05-29T12:47:50;8.60;;;5.72;;
16824;SDS011;8529;48.108;-1.706;2023-05-29T12:50:21;10.40;;;6.18;;
16824;SDS011;8529;48.108;-1.706;2023-05-29T12:52:53;14.85;;;6.13;;
16824;SDS011;8529;48.108;-1.706;2023-05-29T12:55:21;11.18;;;5.97;;
16824;SDS011;8529;48.108;-1.706;2023-05-29T12:57:49;5.97;;;5.30;;
16824;SDS011;8529;48.108;-1.706;2023-05-29T13:00:17;9.73;;;5.38;;
16824;SDS011;8529;48.108;-1.706;2023-05-29T13:02:45;9.07;;;5.80;;
16824;SDS011;8529;48.108;-1.706;2023-05-29T13:05:12;10.07;;;5.93;;
16824;SDS011;8529;48.108;-1.706;2023-05-29T13:07:39;8.13;;;5.65;;
16824;SDS011;8529;48.108;-1.706;2023-05-29T13:10:06;8.20;;;4.75;;
16824;SDS011;8529;48.108;-1.706;2023-05-29T13:12:34;8.63;;;4.90;;
16824;SDS011;8529;48.108;-1.706;2023-05-29T13:15:02;10.82;;;5.68;;
16824;SDS011;8529;48.108;-1.706;2023-05-29T13:17:30;7.82;;;5.30;;
16824;SDS011;8529;48.108;-1.706;2023-05-29T13:19:57;7.15;;;4.63;;
16824;SDS011;8529;48.108;-1.706;2023-05-29T13:22:24;7.45;;;4.75;;
16824;SDS011;8529;48.108;-1.706;2023-05-29T13:24:55;6.70;;;4.78;;
16824;SDS011;8529;48.108;-1.706;2023-05-29T13:27:23;9.10;;;5.20;;
16824;SDS011;8529;48.108;-1.706;2023-05-29T13:29:50;6.30;;;4.70;;
16824;SDS011;8529;48.108;-1.706;2023-05-29T13:32:18;7.93;;;5.07;;
16824;SDS011;8529;48.108;-1.706;2023-05-29T13:34:45;8.55;;;4.85;;
16824;SDS011;8529;48.108;-1.706;2023-05-29T13:37:12;7.97;;;4.68;;
16824;SDS011;8529;48.108;-1.706;2023-05-29T13:39:39;8.45;;;5.10;;
16824;SDS011;8529;48.108;-1.706;2023-05-29T13:42:06;7.40;;;4.85;;
16824;SDS011;8529;48.108;-1.706;2023-05-29T13:44:34;7.80;;;4.80;;
16824;SDS011;8529;48.108;-1.706;2023-05-29T13:47:01;8.13;;;4.57;;
16824;SDS011;8529;48.108;-1.706;2023-05-29T13:49:29;14.32;;;5.57;;
16824;SDS011;8529;48.108;-1.706;2023-05-29T13:51:56;10.80;;;5.22;;
16824;SDS011;8529;48.108;-1.706;2023-05-29T13:54:23;7.95;;;5.30;;
16824;SDS011;8529;48.108;-1.706;2023-05-29T13:56:52;9.00;;;5.03;;
16824;SDS011;8529;48.108;-1.706;2023-05-29T13:59:19;6.75;;;4.40;;
16824;SDS011;8529;48.108;-1.706;2023-05-29T14:01:46;7.95;;;5.28;;
16824;SDS011;8529;48.108;-1.706;2023-05-29T14:04:13;9.05;;;5.00;;
16824;SDS011;8529;48.108;-1.706;2023-05-29T14:06:41;9.70;;;5.15;;
16824;SDS011;8529;48.108;-1.706;2023-05-29T14:09:08;7.30;;;4.82;;
16824;SDS011;8529;48.108;-1.706;2023-05-29T14:11:35;7.20;;;4.85;;
16824;SDS011;8529;48.108;-1.706;2023-05-29T14:14:02;9.02;;;4.88;;
16824;SDS011;8529;48.108;-1.706;2023-05-29T14:16:30;7.63;;;4.80;;
16824;SDS011;8529;48.108;-1.706;2023-05-29T14:18:57;8.27;;;5.13;;
16824;SDS011;8529;48.108;-1.706;2023-05-29T14:21:25;9.50;;;5.60;;
16824;SDS011;8529;48.108;-1.706;2023-05-29T14:23:53;9.00;;;5.15;;
16824;SDS011;8529;48.108;-1.706;2023-05-29T14:28:47;7.07;;;5.10;;
16824;SDS011;8529;48.108;-1.706;2023-05-29T14:31:14;8.10;;;5.13;;
16824;SDS011;8529;48.108;-1.706;2023-05-29T14:33:40;7.95;;;4.53;;
16824;SDS011;8529;48.108;-1.706;2023-05-29T14:36:07;9.07;;;5.03;;
16824;SDS011;8529;48.108;-1.706;2023-05-29T14:38:34;10.63;;;5.47;;
16824;SDS011;8529;48.108;-1.706;2023-05-29T14:41:03;8.85;;;5.13;;
16824;SDS011;8529;48.108;-1.706;2023-05-29T14:43:31;7.75;;;5.63;;
16824;SDS011;8529;48.108;-1.706;2023-05-29T14:45:58;8.43;;;5.30;;